Time;durP1;ratioP1;P1;durP2;ratioP2;P2;SDS_P1;SDS_P2;PMS_P1;PMS_P2;Temp;Humidity;BMP_temperature;BMP_pressure;BME280_temperature;BME280_humidity;BME280_pressure;Samples;Min_cycle;Max_cycle;Signal;HPM_P1;HPM_P2
2023/10/14 00:01:34;;;;;;;16.23;8.75;;;14.50;99.90;;;;;;5062335;28;20478;-63
2023/10/14 00:04:04;;;;;;;17.48;9.80;;;14.50;99.90;;;;;;5057510;28;20131;-62
2023/10/14 00:06:38;;;;;;;16.42;8.93;;;14.40;99.90;;;;;;5057467;28;20047;-70
2023/10/14 00:09:11;;;;;;;16.05;8.15;;;14.40;99.90;;;;;;5073244;28;20442;-64
2023/10/14 00:11:57;;;;;;;15.13;8.00;;;14.40;99.90;;;;;;5053219;28;20045;-64
2023/10/14 00:14:24;;;;;;;12.93;8.15;;;14.40;99.90;;;;;;5058816;28;20495;-62
2023/10/14 00:16:51;;;;;;;12.70;8.82;;;14.50;99.90;;;;;;5057794;28;20041;-63
2023/10/14 00:19:21;;;;;;;12.38;6.60;;;14.40;99.90;;;;;;5060167;28;20051;-63
2023/10/14 00:21:49;;;;;;;12.40;8.65;;;14.50;99.90;;;;;;5056830;28;20049;-64
2023/10/14 00:24:27;;;;;;;15.93;9.27;;;14.50;99.90;;;;;;5060150;28;20041;-63
2023/10/14 00:26:55;;;;;;;16.30;9.07;;;14.40;99.90;;;;;;5057049;28;20044;-61
2023/10/14 00:29:22;;;;;;;16.10;9.00;;;14.40;99.90;;;;;;5040662;28;20067;-63
2023/10/14 00:31:52;;;;;;;11.57;9.48;;;14.40;99.90;;;;;;5065778;28;20044;-62
2023/10/14 00:34:22;;;;;;;18.27;11.02;;;14.30;99.90;;;;;;5040836;28;20059;-63
2023/10/14 00:36:50;;;;;;;18.40;10.27;;;14.30;99.90;;;;;;5055310;28;20565;-65
2023/10/14 00:39:23;;;;;;;19.60;10.35;;;14.20;99.90;;;;;;5056950;28;20126;-62
2023/10/14 00:41:50;;;;;;;16.05;9.43;;;14.10;99.90;;;;;;5059926;28;20052;-66
2023/10/14 00:44:19;;;;;;;12.30;8.65;;;14.00;99.90;;;;;;5060940;28;20056;-63
2023/10/14 00:46:49;;;;;;;15.77;8.90;;;14.00;99.90;;;;;;5056670;28;20095;-63
2023/10/14 00:49:30;;;;;;;17.13;9.02;;;14.00;99.90;;;;;;5053488;28;20037;-62
2023/10/14 00:52:06;;;;;;;16.60;7.97;;;14.00;99.90;;;;;;5055182;28;20060;-63
2023/10/14 00:59:48;;;;;;;24.58;9.52;;;14.00;99.90;;;;;;5040760;28;20042;-64
2023/10/14 01:02:26;;;;;;;18.23;10.52;;;14.00;99.90;;;;;;5036207;28;20048;-62
2023/10/14 01:04:53;;;;;;;22.58;9.40;;;14.00;99.90;;;;;;5040902;28;20053;-63
2023/10/14 01:07:21;;;;;;;19.50;10.32;;;14.00;99.90;;;;;;5056664;28;20036;-64
2023/10/14 01:09:52;;;;;;;17.67;10.93;;;13.90;99.90;;;;;;5058259;28;20558;-62
2023/10/14 01:12:26;;;;;;;17.77;10.77;;;13.90;99.90;;;;;;5059352;28;20048;-62
2023/10/14 01:14:59;;;;;;;16.23;10.63;;;13.90;99.90;;;;;;5061927;28;20036;-61
2023/10/14 01:17:29;;;;;;;20.65;11.40;;;13.80;99.90;;;;;;5057475;28;20064;-62
2023/10/14 01:20:00;;;;;;;28.70;11.40;;;13.70;99.90;;;;;;5042928;28;20053;-64
2023/10/14 01:22:29;;;;;;;19.58;13.10;;;13.70;99.90;;;;;;5057813;28;20083;-61
2023/10/14 01:24:56;;;;;;;22.38;11.00;;;13.70;99.90;;;;;;5043799;28;20044;-63
2023/10/14 01:27:25;;;;;;;19.98;13.05;;;13.70;99.90;;;;;;5060180;28;20044;-62
2023/10/14 01:29:52;;;;;;;26.00;12.63;;;13.70;99.90;;;;;;5052824;28;20044;-60
2023/10/14 01:35:13;;;;;;;23.40;12.38;;;13.70;99.90;;;;;;5056996;28;20483;-62
2023/10/14 01:37:40;;;;;;;19.05;12.02;;;13.70;99.90;;;;;;5053190;28;20044;-64
2023/10/14 01:40:24;;;;;;;18.30;10.57;;;13.70;99.90;;;;;;5052313;28;20135;-63
2023/10/14 01:43:05;;;;;;;16.83;10.07;;;13.70;99.90;;;;;;5054724;28;20071;-62
2023/10/14 01:45:40;;;;;;;19.17;10.50;;;13.70;99.90;;;;;;5073329;28;20132;-63
2023/10/14 01:50:46;;;;;;;22.73;12.27;;;13.70;99.90;;;;;;5059905;28;20045;-66
2023/10/14 01:53:18;;;;;;;17.83;10.52;;;13.70;99.90;;;;;;5064339;28;20048;-61
2023/10/14 01:55:47;;;;;;;18.88;11.32;;;13.70;99.90;;;;;;5041532;28;20049;-61
2023/10/14 01:58:29;;;;;;;32.35;13.07;;;13.70;99.90;;;;;;5047965;28;20052;-61
2023/10/14 02:03:47;;;;;;;21.58;12.07;;;13.70;99.90;;;;;;5052289;28;20053;-65
2023/10/14 02:06:16;;;;;;;22.58;12.27;;;13.70;99.90;;;;;;5060800;28;20048;-64
2023/10/14 02:08:50;;;;;;;19.15;11.07;;;13.70;99.90;;;;;;5044941;28;20071;-61
2023/10/14 02:11:20;;;;;;;25.08;11.75;;;13.70;99.90;;;;;;5059129;28;20033;-63
2023/10/14 02:13:51;;;;;;;19.17;11.45;;;13.70;99.90;;;;;;5074590;28;20060;-64
2023/10/14 02:16:25;;;;;;;22.25;12.38;;;13.70;99.90;;;;;;5056331;28;20071;-62
2023/10/14 02:19:18;;;;;;;20.42;12.02;;;13.70;99.90;;;;;;5051277;28;20049;-61
2023/10/14 02:21:47;;;;;;;23.67;10.88;;;13.70;99.90;;;;;;5060944;28;20093;-60
2023/10/14 02:24:15;;;;;;;28.92;12.00;;;13.70;99.90;;;;;;5058213;28;20033;-61
2023/10/14 02:26:42;;;;;;;23.15;10.95;;;13.80;99.90;;;;;;5057739;28;20127;-64
2023/10/14 02:29:12;;;;;;;21.25;10.90;;;13.80;99.90;;;;;;5061300;28;20060;-63
2023/10/14 02:31:44;;;;;;;23.52;11.05;;;13.80;99.90;;;;;;5060562;28;20036;-61
2023/10/14 02:34:18;;;;;;;15.05;10.32;;;13.90;99.90;;;;;;5063424;28;20667;-62
2023/10/14 02:36:48;;;;;;;17.73;10.70;;;13.90;99.90;;;;;;5041769;28;20404;-61
2023/10/14 02:39:22;;;;;;;22.77;10.77;;;13.90;99.90;;;;;;5060980;28;20036;-64
2023/10/14 02:44:52;;;;;;;21.73;9.25;;;14.00;99.90;;;;;;5046202;28;20052;-63
2023/10/14 02:47:21;;;;;;;13.68;8.88;;;14.00;99.90;;;;;;5059994;28;20136;-65
2023/10/14 02:49:56;;;;;;;16.58;9.13;;;14.00;99.90;;;;;;5058108;28;20033;-64
2023/10/14 02:52:38;;;;;;;17.08;9.77;;;14.10;99.90;;;;;;5051367;28;20406;-64
2023/10/14 02:55:21;;;;;;;14.95;9.57;;;14.10;99.90;;;;;;5058000;28;20048;-64
2023/10/14 02:57:49;;;;;;;25.98;11.75;;;14.10;99.90;;;;;;5047860;28;20443;-63
2023/10/14 03:00:31;;;;;;;21.08;9.82;;;14.00;99.90;;;;;;5059771;28;20115;-63
2023/10/14 03:03:12;;;;;;;13.77;8.13;;;14.00;99.90;;;;;;5056472;28;20112;-62
2023/10/14 03:05:51;;;;;;;18.02;8.68;;;14.10;99.90;;;;;;5057387;28;20532;-63
2023/10/14 03:08:20;;;;;;;10.85;8.13;;;14.00;99.90;;;;;;5061492;28;20041;-62
2023/10/14 03:10:54;;;;;;;11.02;7.32;;;14.00;99.90;;;;;;5059093;28;20037;-63
2023/10/14 03:13:22;;;;;;;15.15;6.55;;;14.00;99.90;;;;;;5059244;28;20044;-63
2023/10/14 03:15:52;;;;;;;9.73;5.18;;;14.00;99.90;;;;;;5058822;28;20175;-62
2023/10/14 03:18:20;;;;;;;10.52;4.65;;;13.90;99.90;;;;;;5059519;28;20040;-63
2023/10/14 03:23:23;;;;;;;4.38;3.53;;;13.80;99.90;;;;;;5054964;28;20053;-62
2023/10/14 03:26:05;;;;;;;7.32;4.25;;;13.70;99.90;;;;;;5060999;28;20413;-65
2023/10/14 03:28:34;;;;;;;8.98;2.97;;;13.70;99.90;;;;;;5058189;28;20045;-65
2023/10/14 03:31:07;;;;;;;8.75;5.32;;;13.60;99.90;;;;;;5059040;28;20029;-62
2023/10/14 03:33:43;;;;;;;11.30;5.18;;;13.60;99.90;;;;;;5060160;28;20036;-62
2023/10/14 03:36:15;;;;;;;12.30;5.90;;;13.50;99.90;;;;;;5065428;28;20045;-65
2023/10/14 03:38:46;;;;;;;10.85;6.03;;;13.50;99.90;;;;;;5039187;28;20448;-64
2023/10/14 03:43:59;;;;;;;14.43;7.20;;;13.40;99.90;;;;;;5059818;28;20785;-65
2023/10/14 03:46:44;;;;;;;25.77;7.95;;;13.30;99.90;;;;;;5055888;28;20037;-62
2023/10/14 03:49:25;;;;;;;14.38;7.72;;;13.30;99.90;;;;;;5057045;28;20040;-64
2023/10/14 03:52:02;;;;;;;19.30;7.03;;;13.30;99.90;;;;;;5061285;28;20385;-63
2023/10/14 03:54:31;;;;;;;10.68;6.30;;;13.30;99.90;;;;;;5056971;28;20049;-63
2023/10/14 03:56:59;;;;;;;18.73;6.28;;;13.30;99.90;;;;;;5059321;28;20114;-61
2023/10/14 03:59:26;;;;;;;10.93;6.78;;;13.30;99.90;;;;;;5055972;28;20427;-62
2023/10/14 04:01:57;;;;;;;10.30;5.22;;;13.30;99.90;;;;;;5058191;28;20048;-64
2023/10/14 04:04:29;;;;;;;9.90;4.85;;;13.30;99.90;;;;;;5058693;28;20090;-64
2023/10/14 04:09:45;;;;;;;12.15;4.80;;;13.30;99.90;;;;;;5055647;28;20063;-64
2023/10/14 04:15:46;;;;;;;11.70;5.70;;;13.10;99.90;;;;;;5058123;28;20071;-66
2023/10/14 04:17:55;;;;;;;13.77;4.97;;;13.00;99.90;;;;;;5051677;28;20050;-62
2023/10/14 04:20:22;;;;;;;17.02;4.50;;;12.90;99.90;;;;;;5056820;28;20052;-64
2023/10/14 04:22:53;;;;;;;14.57;5.43;;;12.80;99.90;;;;;;5061494;28;20075;-62
2023/10/14 04:25:22;;;;;;;17.45;5.13;;;12.80;99.90;;;;;;5056745;28;20132;-62
2023/10/14 04:30:38;;;;;;;12.77;5.00;;;12.70;99.90;;;;;;5056834;28;20043;-62
2023/10/14 04:33:18;;;;;;;10.43;3.40;;;12.60;99.90;;;;;;5056895;28;20045;-64
2023/10/14 04:36:22;;;;;;;10.63;3.83;;;12.50;99.90;;;;;;5062783;28;20486;-63
2023/10/14 04:38:44;;;;;;;10.30;3.10;;;12.40;99.90;;;;;;5055874;28;20132;-64
2023/10/14 04:41:14;;;;;;;8.02;3.53;;;12.30;99.90;;;;;;5057494;28;20114;-61
2023/10/14 04:46:16;;;;;;;2.30;1.63;;;12.20;99.90;;;;;;5054790;28;20037;-63
2023/10/14 04:48:59;;;;;;;9.50;2.05;;;12.20;99.90;;;;;;5062519;28;20043;-62
2023/10/14 04:51:45;;;;;;;4.18;0.95;;;12.10;99.90;;;;;;5057250;28;20044;-62
2023/10/14 04:54:19;;;;;;;4.82;1.27;;;12.10;99.90;;;;;;5055064;28;20505;-62
2023/10/14 04:56:47;;;;;;;5.10;1.48;;;12.10;99.90;;;;;;5055907;28;20486;-63
2023/10/14 04:59:19;;;;;;;6.18;1.30;;;12.00;99.90;;;;;;5056103;28;20086;-64
2023/10/14 05:01:48;;;;;;;3.70;1.45;;;12.00;99.90;;;;;;5061660;28;20041;-62
2023/10/14 05:04:19;;;;;;;3.60;0.80;;;12.00;99.90;;;;;;5058487;28;20123;-61
2023/10/14 05:06:49;;;;;;;4.25;0.98;;;11.90;99.90;;;;;;5052505;28;20049;-61
2023/10/14 05:09:30;;;;;;;8.35;0.90;;;11.90;99.90;;;;;;5057276;28;20051;-62
2023/10/14 05:12:00;;;;;;;5.00;1.60;;;11.90;99.90;;;;;;5056775;28;20098;-62
2023/10/14 05:14:37;;;;;;;13.82;1.17;;;11.90;99.90;;;;;;5060528;28;20139;-61
2023/10/14 05:17:26;;;;;;;3.95;1.17;;;11.80;99.90;;;;;;5051828;28;20049;-63
2023/10/14 05:19:57;;;;;;;5.30;1.38;;;11.80;99.90;;;;;;5055297;28;20481;-63
2023/10/14 05:22:26;;;;;;;4.22;0.70;;;11.80;99.90;;;;;;5058516;28;20041;-64
2023/10/14 05:25:03;;;;;;;5.47;1.40;;;11.80;99.90;;;;;;5055494;28;20051;-64
2023/10/14 05:27:45;;;;;;;4.57;1.08;;;11.80;99.90;;;;;;5060083;28;20060;-66
2023/10/14 05:30:21;;;;;;;5.70;1.10;;;11.80;99.90;;;;;;5056827;28;20131;-62
2023/10/14 05:32:51;;;;;;;4.88;0.90;;;11.80;99.90;;;;;;5057954;28;20131;-63
2023/10/14 05:35:22;;;;;;;2.70;0.80;;;11.70;99.90;;;;;;5055269;28;20120;-62
2023/10/14 05:37:50;;;;;;;2.53;0.82;;;11.70;99.90;;;;;;5055569;28;20044;-65
2023/10/14 05:40:17;;;;;;;6.22;1.13;;;11.70;99.90;;;;;;5055626;28;20037;-62
2023/10/14 05:42:45;;;;;;;1.30;0.65;;;11.70;99.90;;;;;;5057093;28;20036;-62
2023/10/14 05:45:13;;;;;;;5.40;1.38;;;11.60;99.90;;;;;;5054939;28;20055;-62
2023/10/14 05:47:42;;;;;;;2.22;0.77;;;11.60;99.90;;;;;;5062014;28;20108;-61
2023/10/14 05:50:14;;;;;;;5.05;1.52;;;11.60;99.90;;;;;;5058001;28;20268;-61
2023/10/14 05:52:45;;;;;;;4.22;1.35;;;11.40;99.90;;;;;;5056867;28;20036;-66
2023/10/14 05:55:17;;;;;;;3.13;1.08;;;11.40;99.90;;;;;;5054445;28;20037;-62
2023/10/14 05:57:44;;;;;;;6.03;1.75;;;11.40;99.90;;;;;;5053489;28;20041;-62
2023/10/14 06:00:20;;;;;;;5.63;0.88;;;11.30;99.90;;;;;;5056645;28;20040;-62
2023/10/14 06:02:49;;;;;;;4.90;1.40;;;11.30;99.90;;;;;;5050960;28;20382;-63
2023/10/14 06:05:16;;;;;;;3.97;1.77;;;11.20;99.90;;;;;;5055817;28;20051;-64
2023/10/14 06:07:47;;;;;;;8.77;2.15;;;11.10;99.90;;;;;;5058197;28;20037;-65
2023/10/14 06:10:23;;;;;;;3.55;1.48;;;11.20;99.90;;;;;;5051828;28;20122;-61
2023/10/14 06:12:51;;;;;;;16.02;2.15;;;11.10;99.90;;;;;;5052879;28;20060;-61
2023/10/14 06:15:19;;;;;;;12.15;1.85;;;11.00;99.90;;;;;;5059295;28;20044;-62
2023/10/14 06:17:50;;;;;;;4.57;2.25;;;11.00;99.90;;;;;;5056642;28;20056;-63
2023/10/14 06:20:20;;;;;;;10.85;1.88;;;10.90;99.90;;;;;;5056779;28;20029;-63
2023/10/14 06:22:47;;;;;;;7.03;2.03;;;10.90;99.90;;;;;;5057553;28;20163;-62
2023/10/14 06:25:16;;;;;;;7.93;1.63;;;10.90;99.90;;;;;;5058846;28;20045;-63
2023/10/14 06:27:45;;;;;;;6.30;1.65;;;10.90;99.90;;;;;;5057622;28;20037;-62
2023/10/14 06:30:20;;;;;;;5.07;1.58;;;10.90;99.90;;;;;;5054456;28;20060;-62
2023/10/14 06:32:53;;;;;;;5.20;2.13;;;10.90;99.90;;;;;;5056658;28;20098;-63
2023/10/14 06:35:20;;;;;;;5.65;1.48;;;10.80;99.90;;;;;;5059235;28;20047;-62
2023/10/14 06:37:48;;;;;;;4.10;1.00;;;10.90;99.90;;;;;;5055539;28;20524;-61
2023/10/14 06:40:19;;;;;;;8.48;1.77;;;10.80;99.90;;;;;;5058042;28;20044;-62
2023/10/14 06:42:49;;;;;;;3.55;2.28;;;10.90;99.90;;;;;;5059672;28;20036;-62
2023/10/14 06:45:31;;;;;;;;;;;10.90;99.90;;;;;;5057306;28;20052;-65
2023/10/14 06:47:59;;;;;;;7.18;1.55;;;10.90;99.90;;;;;;5058766;28;20358;-65
2023/10/14 06:50:26;;;;;;;5.05;2.15;;;10.80;99.90;;;;;;5058414;28;20117;-62
2023/10/14 06:52:58;;;;;;;3.50;1.27;;;10.80;99.90;;;;;;5062165;28;20040;-62
2023/10/14 06:55:27;;;;;;;8.00;2.67;;;10.80;99.90;;;;;;5057395;28;22094;-62
2023/10/14 06:57:55;;;;;;;9.65;1.63;;;10.90;99.90;;;;;;5061821;28;20048;-63
2023/10/14 07:00:31;;;;;;;6.43;1.05;;;10.90;99.90;;;;;;5054188;28;20048;-63
2023/10/14 07:03:00;;;;;;;5.40;1.77;;;11.00;99.90;;;;;;5059125;28;20041;-64
2023/10/14 07:05:29;;;;;;;9.13;1.95;;;11.00;99.90;;;;;;5062989;28;20775;-62
2023/10/14 07:07:59;;;;;;;4.82;2.03;;;11.00;99.90;;;;;;5058914;28;20072;-63
2023/10/14 07:10:32;;;;;;;2.78;1.58;;;11.00;99.90;;;;;;5056995;28;20079;-62
2023/10/14 07:13:03;;;;;;;5.32;2.63;;;11.00;99.90;;;;;;5061292;28;20033;-62
2023/10/14 07:15:35;;;;;;;8.13;1.83;;;11.00;99.90;;;;;;5055046;28;20099;-69
2023/10/14 07:18:02;;;;;;;11.48;1.88;;;11.10;99.90;;;;;;5060772;28;20075;-62
2023/10/14 07:20:32;;;;;;;4.68;1.77;;;11.20;99.90;;;;;;5058547;28;20458;-62
2023/10/14 07:23:01;;;;;;;6.93;1.80;;;11.20;99.90;;;;;;5057753;28;20144;-63
2023/10/14 07:25:37;;;;;;;7.45;1.52;;;11.30;99.90;;;;;;5058371;28;20048;-65
2023/10/14 07:28:07;;;;;;;5.90;1.75;;;11.40;99.90;;;;;;5062278;28;20052;-62
2023/10/14 07:30:38;;;;;;;5.47;1.40;;;11.40;99.90;;;;;;5054185;28;20124;-63
2023/10/14 07:33:06;;;;;;;4.90;1.45;;;11.40;99.90;;;;;;5059828;28;20387;-61
2023/10/14 07:35:34;;;;;;;4.53;1.42;;;11.50;99.90;;;;;;5057671;28;20491;-64
2023/10/14 07:38:00;;;;;;;4.72;1.50;;;11.40;99.90;;;;;;5058160;28;20041;-68
2023/10/14 07:40:30;;;;;;;7.22;2.28;;;11.40;99.90;;;;;;5056766;28;20069;-63
2023/10/14 07:43:05;;;;;;;7.65;1.60;;;11.40;99.90;;;;;;5057740;28;20090;-60
2023/10/14 07:45:34;;;;;;;3.90;2.25;;;11.30;99.90;;;;;;5052819;28;20036;-61
2023/10/14 07:48:11;;;;;;;7.65;2.33;;;11.20;99.90;;;;;;5058588;28;20125;-66
2023/10/14 07:50:43;;;;;;;5.35;1.48;;;11.20;99.90;;;;;;5060026;28;20093;-63
2023/10/14 07:53:14;;;;;;;12.13;2.40;;;11.10;99.90;;;;;;5062695;28;20561;-62
2023/10/14 07:55:47;;;;;;;10.35;2.20;;;11.00;99.90;;;;;;5061713;28;20059;-65
2023/10/14 07:58:23;;;;;;;10.38;2.25;;;11.00;99.90;;;;;;5057357;28;20041;-62
2023/10/14 08:00:51;;;;;;;13.40;2.67;;;11.00;99.90;;;;;;5055167;28;20037;-64
2023/10/14 08:03:23;;;;;;;3.58;1.63;;;10.90;99.90;;;;;;5058049;28;20041;-61
2023/10/14 08:05:53;;;;;;;8.98;1.77;;;10.90;99.90;;;;;;5054931;28;20157;-65
2023/10/14 08:08:22;;;;;;;8.95;2.13;;;10.90;99.90;;;;;;5059875;28;20535;-63
2023/10/14 08:10:50;;;;;;;9.73;2.78;;;10.90;99.90;;;;;;5062181;28;20040;-62
2023/10/14 08:13:22;;;;;;;10.05;1.55;;;10.80;99.90;;;;;;5061261;28;20478;-61
2023/10/14 08:15:53;;;;;;;5.93;1.58;;;10.90;99.90;;;;;;5061373;28;20055;-64
2023/10/14 08:18:25;;;;;;;5.50;1.83;;;10.90;99.90;;;;;;5058882;28;20052;-64
2023/10/14 08:20:55;;;;;;;7.78;1.70;;;10.90;99.90;;;;;;5056534;28;20039;-63
2023/10/14 08:23:23;;;;;;;7.90;2.13;;;11.00;99.90;;;;;;5060840;28;20410;-64
2023/10/14 08:25:59;;;;;;;7.88;1.58;;;11.10;99.90;;;;;;5062270;28;20244;-62
2023/10/14 08:28:27;;;;;;;5.30;2.20;;;11.10;99.90;;;;;;5056764;28;20051;-63
2023/10/14 08:30:57;;;;;;;4.30;2.22;;;11.10;99.90;;;;;;5057279;28;20474;-62
2023/10/14 08:33:28;;;;;;;5.32;2.50;;;11.10;99.90;;;;;;5057423;28;20025;-61
2023/10/14 08:35:56;;;;;;;7.63;2.65;;;11.20;99.90;;;;;;5056646;28;20123;-66
2023/10/14 08:38:24;;;;;;;5.40;2.08;;;11.20;99.90;;;;;;5055545;28;20459;-63
2023/10/14 08:40:56;;;;;;;9.77;2.17;;;11.20;99.90;;;;;;5056530;28;20029;-64
2023/10/14 08:43:30;;;;;;;10.65;2.40;;;11.20;99.90;;;;;;5056467;28;20045;-61
2023/10/14 08:45:59;;;;;;;5.45;1.55;;;11.30;99.90;;;;;;5059663;28;20036;-62
2023/10/14 08:48:29;;;;;;;6.53;2.63;;;11.30;99.90;;;;;;5055596;28;20048;-63
2023/10/14 08:50:57;;;;;;;14.18;2.88;;;11.30;99.90;;;;;;5054687;28;20061;-64
2023/10/14 08:53:25;;;;;;;9.57;1.58;;;11.40;99.90;;;;;;5055961;28;20126;-61
2023/10/14 08:55:53;;;;;;;6.47;1.58;;;11.30;99.90;;;;;;5053654;28;20141;-63
2023/10/14 08:58:22;;;;;;;10.15;2.90;;;11.40;99.90;;;;;;5055443;28;20053;-66
2023/10/14 09:00:53;;;;;;;8.45;1.70;;;11.40;99.90;;;;;;5053472;28;20601;-62
2023/10/14 09:03:21;;;;;;;10.45;2.42;;;11.40;99.90;;;;;;5060154;28;20099;-63
2023/10/14 09:05:48;;;;;;;6.50;1.80;;;11.40;99.90;;;;;;5054424;28;20476;-63
2023/10/14 09:08:19;;;;;;;10.27;2.42;;;11.50;99.90;;;;;;5057694;28;20044;-62
2023/10/14 09:10:46;;;;;;;;;;;11.50;99.90;;;;;;5058264;28;20049;-62
2023/10/14 09:13:19;;;;;;;7.07;2.63;;;11.50;99.90;;;;;;5056287;28;19920;-62
2023/10/14 09:15:48;;;;;;;7.65;2.40;;;11.40;99.90;;;;;;5058926;28;20092;-61
2023/10/14 09:18:21;;;;;;;6.93;1.90;;;11.40;99.90;;;;;;5060053;28;20045;-63
2023/10/14 09:20:56;;;;;;;8.82;2.40;;;11.40;99.90;;;;;;5057196;28;20063;-61
2023/10/14 09:23:44;;;;;;;4.72;1.92;;;11.40;99.90;;;;;;5053714;28;20123;-67
2023/10/14 09:26:11;;;;;;;6.90;1.83;;;11.40;99.90;;;;;;5056159;28;20521;-66
2023/10/14 09:28:41;;;;;;;15.45;3.13;;;11.40;99.90;;;;;;5052546;28;20037;-62
2023/10/14 09:31:10;;;;;;;14.68;2.70;;;11.50;99.90;;;;;;5053182;28;20067;-63
2023/10/14 09:33:41;;;;;;;5.05;1.70;;;11.50;99.90;;;;;;5054111;28;20033;-64
2023/10/14 09:36:14;;;;;;;8.70;2.22;;;11.60;99.90;;;;;;5054426;28;20124;-61
2023/10/14 09:38:43;;;;;;;11.57;4.15;;;11.60;99.90;;;;;;5057522;28;20045;-65
2023/10/14 09:41:11;;;;;;;14.23;2.55;;;11.60;99.90;;;;;;5053209;28;20051;-61
2023/10/14 09:43:48;;;;;;;10.20;2.55;;;11.70;99.90;;;;;;5058663;28;20037;-62
2023/10/14 09:46:17;;;;;;;6.13;2.10;;;11.70;99.90;;;;;;5058675;28;20458;-63
2023/10/14 09:48:45;;;;;;;11.32;2.67;;;11.70;99.90;;;;;;5059253;28;20040;-64
2023/10/14 09:51:16;;;;;;;6.45;1.90;;;11.70;99.90;;;;;;5057776;28;20040;-64
2023/10/14 09:53:46;;;;;;;6.28;2.38;;;11.80;99.90;;;;;;5057377;28;20033;-66
2023/10/14 09:56:13;;;;;;;12.18;2.40;;;11.80;99.90;;;;;;5056318;28;20106;-69
2023/10/14 09:58:46;;;;;;;6.25;2.13;;;11.80;99.90;;;;;;5050053;28;20377;-63
2023/10/14 10:01:15;;;;;;;9.60;2.47;;;11.70;99.90;;;;;;5054832;28;22380;-64
2023/10/14 10:03:51;;;;;;;10.18;2.40;;;11.80;99.90;;;;;;5055950;28;20497;-64
2023/10/14 10:06:24;;;;;;;9.93;2.80;;;11.80;99.90;;;;;;5055978;28;20407;-62
2023/10/14 10:09:29;;;;;;;10.20;2.90;;;11.80;99.90;;;;;;5055866;28;20046;-62
2023/10/14 10:11:59;;;;;;;10.90;4.32;;;11.90;99.90;;;;;;5057184;28;20041;-64
2023/10/14 10:14:26;;;;;;;9.55;2.60;;;11.90;99.90;;;;;;5055275;28;20500;-64
2023/10/14 10:16:57;;;;;;;7.00;2.13;;;11.90;99.90;;;;;;5058197;28;20044;-62
2023/10/14 10:20:09;;;;;;;10.10;3.17;;;12.00;99.90;;;;;;5059985;28;20123;-63
2023/10/14 10:22:45;;;;;;;9.60;2.05;;;12.10;99.90;;;;;;5055063;28;20076;-61
2023/10/14 10:25:14;;;;;;;12.73;3.55;;;12.10;99.90;;;;;;5062337;28;20060;-61
2023/10/14 10:27:43;;;;;;;9.82;1.90;;;12.10;99.90;;;;;;5059420;28;20041;-66
2023/10/14 10:30:16;;;;;;;9.00;3.00;;;12.10;99.90;;;;;;5057847;28;20089;-61
2023/10/14 10:32:48;;;;;;;13.77;2.92;;;12.10;99.90;;;;;;5061448;28;20093;-67
2023/10/14 10:35:20;;;;;;;6.55;2.53;;;12.20;99.90;;;;;;5061269;28;20534;-63
2023/10/14 10:37:47;;;;;;;9.20;2.17;;;12.20;99.90;;;;;;5055829;28;20056;-61
2023/10/14 10:40:18;;;;;;;8.75;2.78;;;12.20;99.90;;;;;;5059946;28;20087;-62
2023/10/14 10:42:53;;;;;;;12.65;2.10;;;12.20;99.90;;;;;;5057999;28;20098;-62
2023/10/14 10:45:30;;;;;;;10.85;2.88;;;12.20;99.90;;;;;;5058123;28;20142;-62
2023/10/14 10:48:04;;;;;;;8.85;2.58;;;12.20;99.90;;;;;;5057120;28;20123;-61
2023/10/14 10:50:39;;;;;;;9.07;2.72;;;12.20;99.90;;;;;;5058515;28;20041;-63
2023/10/14 10:53:10;;;;;;;8.38;1.92;;;12.20;99.90;;;;;;5066782;28;20034;-63
2023/10/14 10:55:43;;;;;;;10.00;2.17;;;12.20;99.90;;;;;;5055803;28;20072;-65
2023/10/14 10:58:14;;;;;;;9.45;2.17;;;12.20;99.90;;;;;;5060161;28;20033;-64
2023/10/14 11:00:48;;;;;;;5.22;2.35;;;12.20;99.90;;;;;;5060734;28;20040;-65
2023/10/14 11:03:16;;;;;;;10.48;2.08;;;12.20;99.90;;;;;;5060740;28;20040;-62
2023/10/14 11:05:46;;;;;;;14.30;2.45;;;12.20;99.90;;;;;;5064081;28;20068;-63
2023/10/14 11:08:16;;;;;;;7.38;1.70;;;12.20;99.90;;;;;;5055509;28;20037;-62
2023/10/14 11:10:44;;;;;;;10.35;1.98;;;12.20;99.90;;;;;;5060066;28;20048;-65
2023/10/14 11:13:13;;;;;;;8.30;2.30;;;12.20;99.90;;;;;;5058169;28;20044;-62
2023/10/14 11:15:43;;;;;;;9.77;2.13;;;12.20;99.90;;;;;;5060042;28;20044;-64
2023/10/14 11:18:10;;;;;;;7.15;2.25;;;12.20;99.90;;;;;;5064344;28;20561;-61
2023/10/14 11:20:50;;;;;;;12.90;3.13;;;12.20;99.90;;;;;;5057721;28;20542;-62
2023/10/14 11:23:17;;;;;;;10.75;3.03;;;12.20;99.90;;;;;;5061404;28;20033;-63
2023/10/14 11:25:46;;;;;;;6.00;2.00;;;12.20;99.90;;;;;;5058847;28;20028;-63
2023/10/14 11:28:14;;;;;;;9.57;2.53;;;12.20;99.90;;;;;;5061301;28;20056;-65
2023/10/14 11:30:44;;;;;;;5.57;1.75;;;12.30;99.90;;;;;;5060124;28;20046;-64
2023/10/14 11:33:13;;;;;;;11.02;2.53;;;12.30;99.90;;;;;;5062079;28;20045;-61
2023/10/14 11:35:40;;;;;;;15.18;2.92;;;12.30;99.90;;;;;;5042287;28;20708;-64
2023/10/14 11:38:12;;;;;;;12.93;2.15;;;12.30;99.90;;;;;;5060293;28;20044;-62
2023/10/14 11:40:45;;;;;;;14.35;2.28;;;12.30;99.90;;;;;;5057691;28;20417;-62
2023/10/14 11:43:12;;;;;;;12.77;4.10;;;12.30;99.90;;;;;;5055372;28;20052;-61
2023/10/14 11:45:43;;;;;;;9.30;2.03;;;12.30;99.90;;;;;;5057378;28;20041;-64
2023/10/14 11:48:22;;;;;;;15.20;2.85;;;12.30;99.90;;;;;;5057004;28;20115;-63
2023/10/14 11:51:00;;;;;;;8.05;1.45;;;12.30;99.90;;;;;;5059640;28;20063;-62
2023/10/14 11:53:32;;;;;;;4.35;2.08;;;12.30;99.90;;;;;;5060182;28;20516;-66
2023/10/14 11:56:03;;;;;;;6.70;1.85;;;12.30;99.90;;;;;;5055902;28;20053;-65
2023/10/14 11:58:33;;;;;;;7.25;1.88;;;12.40;99.90;;;;;;5054481;28;20051;-62
2023/10/14 12:01:00;;;;;;;13.43;2.50;;;12.40;99.90;;;;;;5063813;28;20025;-62
2023/10/14 12:03:27;;;;;;;6.63;1.67;;;12.40;99.90;;;;;;5060823;28;20029;-62
2023/10/14 12:05:58;;;;;;;6.60;2.10;;;12.40;99.90;;;;;;5057117;28;20123;-61
2023/10/14 12:08:38;;;;;;;5.28;1.75;;;12.40;99.90;;;;;;5056368;28;20045;-68
2023/10/14 12:11:08;;;;;;;7.45;2.28;;;12.40;99.90;;;;;;5053089;28;20044;-63
2023/10/14 12:13:36;;;;;;;5.60;1.83;;;12.40;99.90;;;;;;5061782;28;20044;-64
2023/10/14 12:16:15;;;;;;;14.07;3.58;;;12.40;99.90;;;;;;5060340;28;20097;-64
2023/10/14 12:18:45;;;;;;;10.32;2.58;;;12.40;99.90;;;;;;5056498;28;20136;-62
2023/10/14 12:21:13;;;;;;;6.05;1.23;;;12.30;99.90;;;;;;5055131;28;20390;-61
2023/10/14 12:23:40;;;;;;;11.70;2.15;;;12.30;99.90;;;;;;5060237;28;20068;-66
2023/10/14 12:26:13;;;;;;;11.13;1.90;;;12.30;99.90;;;;;;5058564;28;20041;-62
2023/10/14 12:29:07;;;;;;;7.78;3.00;;;12.40;99.90;;;;;;5061141;28;20561;-63
2023/10/14 12:31:38;;;;;;;9.52;1.90;;;12.50;99.90;;;;;;5054336;28;20033;-62
2023/10/14 12:34:08;;;;;;;5.97;1.60;;;12.50;99.90;;;;;;5055814;28;20028;-61
2023/10/14 12:36:40;;;;;;;13.43;2.70;;;12.50;99.90;;;;;;5058455;28;20051;-62
2023/10/14 12:39:26;;;;;;;9.32;2.22;;;12.40;99.90;;;;;;5053525;28;20360;-65
2023/10/14 12:41:53;;;;;;;7.25;1.70;;;12.50;99.90;;;;;;5059475;28;20046;-63
2023/10/14 12:44:20;;;;;;;10.15;2.22;;;12.50;99.90;;;;;;5057479;28;20048;-63
2023/10/14 12:46:47;;;;;;;5.35;2.05;;;12.50;99.90;;;;;;5055700;28;20459;-61
2023/10/14 12:49:18;;;;;;;8.27;2.88;;;12.50;99.90;;;;;;5059138;28;20041;-62
2023/10/14 12:51:46;;;;;;;7.45;1.98;;;12.50;99.90;;;;;;5056895;28;20047;-61
2023/10/14 12:54:17;;;;;;;7.25;2.33;;;12.50;99.90;;;;;;5056062;28;20048;-62
2023/10/14 12:56:45;;;;;;;9.07;2.22;;;12.50;99.90;;;;;;5054837;28;20045;-66
2023/10/14 12:59:15;;;;;;;5.20;2.13;;;12.50;99.90;;;;;;5060116;28;20061;-61
2023/10/14 13:01:58;;;;;;;23.90;2.70;;;12.50;99.90;;;;;;5056767;28;20099;-63
2023/10/14 13:04:27;;;;;;;8.15;1.60;;;12.50;99.90;;;;;;5058966;28;20456;-62
2023/10/14 13:06:56;;;;;;;8.68;2.28;;;12.60;99.90;;;;;;5064043;28;20136;-62
2023/10/14 13:09:27;;;;;;;7.10;1.83;;;12.60;99.90;;;;;;5056545;28;20044;-61
2023/10/14 13:11:57;;;;;;;11.57;2.72;;;12.60;99.90;;;;;;5055414;28;20056;-63
2023/10/14 13:14:27;;;;;;;12.10;3.55;;;12.60;99.90;;;;;;5058835;28;20419;-62
2023/10/14 13:16:58;;;;;;;7.03;2.92;;;12.60;99.90;;;;;;5057611;28;20048;-62
2023/10/14 13:19:32;;;;;;;11.23;2.92;;;12.60;99.90;;;;;;5054320;28;20033;-64
2023/10/14 13:22:02;;;;;;;8.48;1.80;;;12.60;99.90;;;;;;5057566;28;20033;-61
2023/10/14 13:24:31;;;;;;;5.07;1.58;;;12.60;99.90;;;;;;5059624;28;21340;-64
2023/10/14 13:26:59;;;;;;;7.10;1.42;;;12.60;99.90;;;;;;5055153;28;20101;-62
2023/10/14 13:29:26;;;;;;;8.32;2.92;;;12.60;99.90;;;;;;5056547;28;20382;-62
2023/10/14 13:31:53;;;;;;;9.10;1.63;;;12.60;99.90;;;;;;5057224;28;20090;-61
2023/10/14 13:34:20;;;;;;;10.90;2.88;;;12.60;99.90;;;;;;5057367;28;20067;-65
2023/10/14 13:36:47;;;;;;;14.55;2.35;;;12.60;99.90;;;;;;5052452;28;20037;-62